sensor_id;sensor_type;location;lat;lon;timestamp;temperature;humidity
36800;DHT22;22752;51.960;5.886;2024-03-23T00:55:44;8.10;99.90
36800;DHT22;22752;51.960;5.886;2024-03-23T00:58:10;8.00;99.90
36800;DHT22;22752;51.960;5.886;2024-03-23T01:00:35;8.00;99.90
36800;DHT22;22752;51.960;5.886;2024-03-23T01:03:01;8.00;99.90
36800;DHT22;22752;51.960;5.886;2024-03-23T01:05:27;8.00;99.90
36800;DHT22;22752;51.960;5.886;2024-03-23T01:07:52;8.00;99.90
36800;DHT22;22752;51.960;5.886;2024-03-23T01:10:18;7.90;99.90
36800;DHT22;22752;51.960;5.886;2024-03-23T01:12:43;7.90;99.90
36800;DHT22;22752;51.960;5.886;2024-03-23T01:15:09;7.90;99.90
36800;DHT22;22752;51.960;5.886;2024-03-23T01:17:35;7.90;99.90
36800;DHT22;22752;51.960;5.886;2024-03-23T01:20:00;7.90;99.90
36800;DHT22;22752;51.960;5.886;2024-03-23T01:22:26;7.90;99.90
36800;DHT22;22752;51.960;5.886;2024-03-23T01:24:52;7.80;99.90
36800;DHT22;22752;51.960;5.886;2024-03-23T01:27:17;7.80;99.90
36800;DHT22;22752;51.960;5.886;2024-03-23T01:29:43;7.80;99.90
36800;DHT22;22752;51.960;5.886;2024-03-23T01:32:09;7.80;99.90
36800;DHT22;22752;51.960;5.886;2024-03-23T01:34:35;7.70;99.90
36800;DHT22;22752;51.960;5.886;2024-03-23T01:37:01;7.70;99.90
36800;DHT22;22752;51.960;5.886;2024-03-23T01:39:26;7.70;99.90
36800;DHT22;22752;51.960;5.886;2024-03-23T01:41:52;7.70;99.90
36800;DHT22;22752;51.960;5.886;2024-03-23T01:44:17;7.70;99.90
36800;DHT22;22752;51.960;5.886;2024-03-23T01:46:44;7.70;99.90
36800;DHT22;22752;51.960;5.886;2024-03-23T01:49:10;7.70;99.90
36800;DHT22;22752;51.960;5.886;2024-03-23T01:51:36;7.70;99.90
36800;DHT22;22752;51.960;5.886;2024-03-23T01:54:03;7.70;99.90
36800;DHT22;22752;51.960;5.886;2024-03-23T01:56:33;7.70;99.90
36800;DHT22;22752;51.960;5.886;2024-03-23T01:59:01;7.70;99.90
36800;DHT22;22752;51.960;5.886;2024-03-23T02:01:27;7.70;99.90
36800;DHT22;22752;51.960;5.886;2024-03-23T02:03:52;7.70;99.90
36800;DHT22;22752;51.960;5.886;2024-03-23T02:06:18;7.60;99.90
36800;DHT22;22752;51.960;5.886;2024-03-23T02:08:44;7.70;99.90
36800;DHT22;22752;51.960;5.886;2024-03-23T02:11:09;7.60;99.90
36800;DHT22;22752;51.960;5.886;2024-03-23T02:13:35;7.60;99.90
36800;DHT22;22752;51.960;5.886;2024-03-23T02:16:01;7.60;99.90
36800;DHT22;22752;51.960;5.886;2024-03-23T02:18:27;7.50;99.90
36800;DHT22;22752;51.960;5.886;2024-03-23T02:20:52;7.50;99.90
36800;DHT22;22752;51.960;5.886;2024-03-23T02:23:18;7.50;99.90
36800;DHT22;22752;51.960;5.886;2024-03-23T02:25:44;7.50;99.90
36800;DHT22;22752;51.960;5.886;2024-03-23T02:28:10;7.50;99.90
36800;DHT22;22752;51.960;5.886;2024-03-23T02:30:36;7.60;99.90
36800;DHT22;22752;51.960;5.886;2024-03-23T02:33:02;7.60;99.90
36800;DHT22;22752;51.960;5.886;2024-03-23T02:35:28;7.50;99.90
36800;DHT22;22752;51.960;5.886;2024-03-23T02:37:53;7.50;99.90
36800;DHT22;22752;51.960;5.886;2024-03-23T02:40:23;7.50;99.90
36800;DHT22;22752;51.960;5.886;2024-03-23T02:42:49;7.50;99.90
36800;DHT22;22752;51.960;5.886;2024-03-23T02:45:15;7.50;99.90
36800;DHT22;22752;51.960;5.886;2024-03-23T02:47:41;7.40;99.90
36800;DHT22;22752;51.960;5.886;2024-03-23T02:50:07;7.40;99.90
36800;DHT22;22752;51.960;5.886;2024-03-23T02:52:34;7.30;99.90
36800;DHT22;22752;51.960;5.886;2024-03-23T02:54:59;7.30;99.90
36800;DHT22;22752;51.960;5.886;2024-03-23T02:57:27;7.20;99.90
36800;DHT22;22752;51.960;5.886;2024-03-23T02:59:53;7.10;99.90
36800;DHT22;22752;51.960;5.886;2024-03-23T03:02:19;7.10;99.90
36800;DHT22;22752;51.960;5.886;2024-03-23T03:04:45;7.10;99.90
36800;DHT22;22752;51.960;5.886;2024-03-23T03:07:10;7.00;99.90
36800;DHT22;22752;51.960;5.886;2024-03-23T03:09:36;7.10;99.90
36800;DHT22;22752;51.960;5.886;2024-03-23T03:12:07;7.00;99.90
36800;DHT22;22752;51.960;5.886;2024-03-23T03:14:34;7.00;99.90
36800;DHT22;22752;51.960;5.886;2024-03-23T03:17:00;7.00;99.90
36800;DHT22;22752;51.960;5.886;2024-03-23T03:19:25;6.90;99.90
36800;DHT22;22752;51.960;5.886;2024-03-23T03:21:51;6.90;99.90
36800;DHT22;22752;51.960;5.886;2024-03-23T03:24:17;6.80;99.90
36800;DHT22;22752;51.960;5.886;2024-03-23T03:26:42;6.80;99.90
36800;DHT22;22752;51.960;5.886;2024-03-23T03:29:08;6.80;99.90
36800;DHT22;22752;51.960;5.886;2024-03-23T03:31:34;6.70;99.90
36800;DHT22;22752;51.960;5.886;2024-03-23T03:33:59;6.70;99.90
36800;DHT22;22752;51.960;5.886;2024-03-23T03:36:25;6.70;99.90
36800;DHT22;22752;51.960;5.886;2024-03-23T03:38:51;6.70;99.90
36800;DHT22;22752;51.960;5.886;2024-03-23T03:41:18;6.70;99.90
36800;DHT22;22752;51.960;5.886;2024-03-23T03:43:44;6.70;99.90
36800;DHT22;22752;51.960;5.886;2024-03-23T03:46:09;6.70;99.90
36800;DHT22;22752;51.960;5.886;2024-03-23T03:48:36;6.80;99.90
36800;DHT22;22752;51.960;5.886;2024-03-23T03:51:02;6.80;99.90
36800;DHT22;22752;51.960;5.886;2024-03-23T03:53:28;6.90;99.90
36800;DHT22;22752;51.960;5.886;2024-03-23T03:55:54;6.80;99.90
36800;DHT22;22752;51.960;5.886;2024-03-23T03:58:19;6.80;99.90
36800;DHT22;22752;51.960;5.886;2024-03-23T04:00:45;6.80;99.90
36800;DHT22;22752;51.960;5.886;2024-03-23T04:03:10;6.70;99.90
36800;DHT22;22752;51.960;5.886;2024-03-23T04:05:36;6.70;99.90
36800;DHT22;22752;51.960;5.886;2024-03-23T04:08:03;6.70;99.90
36800;DHT22;22752;51.960;5.886;2024-03-23T04:10:30;6.70;99.90
36800;DHT22;22752;51.960;5.886;2024-03-23T04:12:55;6.60;99.90
36800;DHT22;22752;51.960;5.886;2024-03-23T04:15:21;6.60;99.90
36800;DHT22;22752;51.960;5.886;2024-03-23T04:17:47;6.50;99.90
36800;DHT22;22752;51.960;5.886;2024-03-23T04:20:13;6.50;99.90
36800;DHT22;22752;51.960;5.886;2024-03-23T04:22:42;6.40;99.90
36800;DHT22;22752;51.960;5.886;2024-03-23T04:25:08;6.40;99.90
36800;DHT22;22752;51.960;5.886;2024-03-23T04:27:36;6.40;99.90
36800;DHT22;22752;51.960;5.886;2024-03-23T04:30:03;6.30;99.90
36800;DHT22;22752;51.960;5.886;2024-03-23T04:32:30;6.30;99.90
36800;DHT22;22752;51.960;5.886;2024-03-23T04:34:56;6.30;99.90
36800;DHT22;22752;51.960;5.886;2024-03-23T04:37:22;6.20;99.90
36800;DHT22;22752;51.960;5.886;2024-03-23T04:39:48;6.20;99.90
36800;DHT22;22752;51.960;5.886;2024-03-23T04:42:15;6.10;99.90
36800;DHT22;22752;51.960;5.886;2024-03-23T04:44:41;6.10;99.90
36800;DHT22;22752;51.960;5.886;2024-03-23T04:47:07;6.00;99.90
36800;DHT22;22752;51.960;5.886;2024-03-23T04:49:33;6.00;99.90
36800;DHT22;22752;51.960;5.886;2024-03-23T04:51:58;6.00;99.90
36800;DHT22;22752;51.960;5.886;2024-03-23T04:54:24;6.00;99.90
36800;DHT22;22752;51.960;5.886;2024-03-23T04:56:50;5.90;99.90
36800;DHT22;22752;51.960;5.886;2024-03-23T04:59:15;5.90;99.90
36800;DHT22;22752;51.960;5.886;2024-03-23T05:01:41;5.90;99.90
36800;DHT22;22752;51.960;5.886;2024-03-23T05:04:08;5.80;99.90
36800;DHT22;22752;51.960;5.886;2024-03-23T05:06:34;5.80;99.90
36800;DHT22;22752;51.960;5.886;2024-03-23T05:09:00;5.80;99.90
36800;DHT22;22752;51.960;5.886;2024-03-23T05:11:31;5.70;99.90
36800;DHT22;22752;51.960;5.886;2024-03-23T05:13:57;5.70;99.90
36800;DHT22;22752;51.960;5.886;2024-03-23T05:16:23;5.70;99.90
36800;DHT22;22752;51.960;5.886;2024-03-23T05:18:48;5.70;99.90
36800;DHT22;22752;51.960;5.886;2024-03-23T05:21:14;5.60;99.90
36800;DHT22;22752;51.960;5.886;2024-03-23T05:23:39;5.60;99.90
36800;DHT22;22752;51.960;5.886;2024-03-23T05:26:06;5.60;99.90
36800;DHT22;22752;51.960;5.886;2024-03-23T05:28:31;5.60;99.90
36800;DHT22;22752;51.960;5.886;2024-03-23T05:30:57;5.60;99.90
36800;DHT22;22752;51.960;5.886;2024-03-23T05:33:23;5.70;99.90
36800;DHT22;22752;51.960;5.886;2024-03-23T05:35:57;5.70;99.90
36800;DHT22;22752;51.960;5.886;2024-03-23T05:38:23;5.70;99.90
36800;DHT22;22752;51.960;5.886;2024-03-23T05:40:59;5.70;99.90
36800;DHT22;22752;51.960;5.886;2024-03-23T05:43:25;5.70;99.90
36800;DHT22;22752;51.960;5.886;2024-03-23T05:45:57;5.60;99.90
36800;DHT22;22752;51.960;5.886;2024-03-23T05:48:24;5.60;99.90
36800;DHT22;22752;51.960;5.886;2024-03-23T05:50:50;5.60;99.90
36800;DHT22;22752;51.960;5.886;2024-03-23T05:53:16;5.50;99.90
36800;DHT22;22752;51.960;5.886;2024-03-23T05:55:43;5.50;99.90
36800;DHT22;22752;51.960;5.886;2024-03-23T05:58:09;5.50;99.90
36800;DHT22;22752;51.960;5.886;2024-03-23T06:00:34;5.50;99.90
36800;DHT22;22752;51.960;5.886;2024-03-23T06:03:00;5.50;99.90
36800;DHT22;22752;51.960;5.886;2024-03-23T06:05:26;5.50;99.90
36800;DHT22;22752;51.960;5.886;2024-03-23T06:07:52;5.50;99.90
36800;DHT22;22752;51.960;5.886;2024-03-23T06:10:18;5.60;99.90
36800;DHT22;22752;51.960;5.886;2024-03-23T06:12:45;5.60;99.90
36800;DHT22;22752;51.960;5.886;2024-03-23T06:15:11;5.70;99.90
36800;DHT22;22752;51.960;5.886;2024-03-23T06:17:38;5.70;99.90
36800;DHT22;22752;51.960;5.886;2024-03-23T06:20:04;5.80;99.90
36800;DHT22;22752;51.960;5.886;2024-03-23T06:22:32;5.90;99.90
36800;DHT22;22752;51.960;5.886;2024-03-23T06:24:59;6.00;99.90
36800;DHT22;22752;51.960;5.886;2024-03-23T06:27:24;6.00;99.90
36800;DHT22;22752;51.960;5.886;2024-03-23T06:29:50;6.20;99.90
36800;DHT22;22752;51.960;5.886;2024-03-23T06:32:16;6.30;99.90
36800;DHT22;22752;51.960;5.886;2024-03-23T06:34:42;6.50;99.90
36800;DHT22;22752;51.960;5.886;2024-03-23T06:37:08;6.60;99.90
36800;DHT22;22752;51.960;5.886;2024-03-23T06:39:38;6.70;99.90
36800;DHT22;22752;51.960;5.886;2024-03-23T06:42:04;6.70;99.90
36800;DHT22;22752;51.960;5.886;2024-03-23T06:44:30;6.60;99.90
36800;DHT22;22752;51.960;5.886;2024-03-23T06:46:56;6.60;99.90
36800;DHT22;22752;51.960;5.886;2024-03-23T06:49:25;6.70;99.90
36800;DHT22;22752;51.960;5.886;2024-03-23T06:51:51;6.80;99.90
36800;DHT22;22752;51.960;5.886;2024-03-23T06:54:17;7.00;99.90
36800;DHT22;22752;51.960;5.886;2024-03-23T06:56:44;7.10;99.90
36800;DHT22;22752;51.960;5.886;2024-03-23T06:59:10;7.10;99.90
36800;DHT22;22752;51.960;5.886;2024-03-23T07:01:35;7.20;99.90
36800;DHT22;22752;51.960;5.886;2024-03-23T07:04:01;7.20;99.90
36800;DHT22;22752;51.960;5.886;2024-03-23T07:06:27;7.30;99.90
36800;DHT22;22752;51.960;5.886;2024-03-23T07:08:53;7.40;99.90
36800;DHT22;22752;51.960;5.886;2024-03-23T07:11:19;7.50;99.90
36800;DHT22;22752;51.960;5.886;2024-03-23T07:13:45;7.50;99.90
36800;DHT22;22752;51.960;5.886;2024-03-23T07:16:12;7.50;99.90
36800;DHT22;22752;51.960;5.886;2024-03-23T07:18:38;7.50;99.90
36800;DHT22;22752;51.960;5.886;2024-03-23T07:21:04;7.60;99.90
36800;DHT22;22752;51.960;5.886;2024-03-23T07:23:32;7.50;99.90
36800;DHT22;22752;51.960;5.886;2024-03-23T07:25:58;7.50;99.90
36800;DHT22;22752;51.960;5.886;2024-03-23T07:28:23;7.50;99.90
36800;DHT22;22752;51.960;5.886;2024-03-23T07:31:03;7.50;99.90
36800;DHT22;22752;51.960;5.886;2024-03-23T07:33:30;7.50;99.90
36800;DHT22;22752;51.960;5.886;2024-03-23T07:35:55;7.50;99.90
36800;DHT22;22752;51.960;5.886;2024-03-23T07:38:21;7.50;99.90
36800;DHT22;22752;51.960;5.886;2024-03-23T07:40:47;7.50;99.90
36800;DHT22;22752;51.960;5.886;2024-03-23T07:43:15;7.50;99.90
36800;DHT22;22752;51.960;5.886;2024-03-23T07:45:41;7.50;99.90
36800;DHT22;22752;51.960;5.886;2024-03-23T07:48:06;7.50;99.90
36800;DHT22;22752;51.960;5.886;2024-03-23T07:50:32;7.60;99.90
36800;DHT22;22752;51.960;5.886;2024-03-23T07:52:58;7.60;99.90
36800;DHT22;22752;51.960;5.886;2024-03-23T07:55:23;7.60;99.90
36800;DHT22;22752;51.960;5.886;2024-03-23T07:57:51;7.70;99.90
36800;DHT22;22752;51.960;5.886;2024-03-23T08:00:17;7.80;99.90
36800;DHT22;22752;51.960;5.886;2024-03-23T08:02:42;7.80;99.90
36800;DHT22;22752;51.960;5.886;2024-03-23T08:05:08;7.90;99.90
36800;DHT22;22752;51.960;5.886;2024-03-23T08:07:34;8.00;99.90
36800;DHT22;22752;51.960;5.886;2024-03-23T08:09:59;8.10;99.90
36800;DHT22;22752;51.960;5.886;2024-03-23T08:12:25;8.20;99.90
36800;DHT22;22752;51.960;5.886;2024-03-23T08:14:51;8.30;99.90
36800;DHT22;22752;51.960;5.886;2024-03-23T08:17:16;8.40;99.90
36800;DHT22;22752;51.960;5.886;2024-03-23T08:19:42;8.50;99.90
36800;DHT22;22752;51.960;5.886;2024-03-23T08:22:08;8.50;99.90
36800;DHT22;22752;51.960;5.886;2024-03-23T08:24:34;8.40;99.90
36800;DHT22;22752;51.960;5.886;2024-03-23T08:27:00;8.50;99.90
36800;DHT22;22752;51.960;5.886;2024-03-23T08:29:26;8.60;99.90
36800;DHT22;22752;51.960;5.886;2024-03-23T08:31:51;8.60;99.90
36800;DHT22;22752;51.960;5.886;2024-03-23T08:34:17;8.60;99.90
36800;DHT22;22752;51.960;5.886;2024-03-23T08:36:43;8.70;99.90
36800;DHT22;22752;51.960;5.886;2024-03-23T08:39:09;8.70;99.90
36800;DHT22;22752;51.960;5.886;2024-03-23T08:41:35;8.80;99.90
36800;DHT22;22752;51.960;5.886;2024-03-23T08:44:00;9.00;99.90
36800;DHT22;22752;51.960;5.886;2024-03-23T08:46:26;9.00;99.90
36800;DHT22;22752;51.960;5.886;2024-03-23T08:48:53;9.00;99.90
36800;DHT22;22752;51.960;5.886;2024-03-23T08:51:19;9.00;99.90
36800;DHT22;22752;51.960;5.886;2024-03-23T08:53:45;9.10;99.90
36800;DHT22;22752;51.960;5.886;2024-03-23T08:56:11;9.30;99.90
36800;DHT22;22752;51.960;5.886;2024-03-23T08:58:38;9.60;99.90
36800;DHT22;22752;51.960;5.886;2024-03-23T09:01:08;9.90;99.90
36800;DHT22;22752;51.960;5.886;2024-03-23T09:03:34;10.10;99.90
36800;DHT22;22752;51.960;5.886;2024-03-23T09:06:01;10.20;99.90
36800;DHT22;22752;51.960;5.886;2024-03-23T09:08:27;9.70;99.90
36800;DHT22;22752;51.960;5.886;2024-03-23T09:10:54;9.30;99.90
36800;DHT22;22752;51.960;5.886;2024-03-23T09:13:20;9.00;99.90
36800;DHT22;22752;51.960;5.886;2024-03-23T09:15:50;8.80;99.90
36800;DHT22;22752;51.960;5.886;2024-03-23T09:18:16;8.70;99.90
36800;DHT22;22752;51.960;5.886;2024-03-23T09:20:42;8.50;99.90
36800;DHT22;22752;51.960;5.886;2024-03-23T09:23:08;8.30;99.90
36800;DHT22;22752;51.960;5.886;2024-03-23T09:25:38;8.10;99.90
36800;DHT22;22752;51.960;5.886;2024-03-23T09:28:07;7.80;99.90
36800;DHT22;22752;51.960;5.886;2024-03-23T09:30:34;7.70;99.90
36800;DHT22;22752;51.960;5.886;2024-03-23T09:33:00;7.70;99.90
36800;DHT22;22752;51.960;5.886;2024-03-23T09:35:26;7.90;99.90
36800;DHT22;22752;51.960;5.886;2024-03-23T09:37:52;8.00;99.90
36800;DHT22;22752;51.960;5.886;2024-03-23T09:40:18;8.10;99.90
36800;DHT22;22752;51.960;5.886;2024-03-23T09:42:52;8.20;99.90
36800;DHT22;22752;51.960;5.886;2024-03-23T09:45:21;8.30;99.90
36800;DHT22;22752;51.960;5.886;2024-03-23T09:47:48;8.40;99.90
36800;DHT22;22752;51.960;5.886;2024-03-23T09:50:13;8.40;99.90
36800;DHT22;22752;51.960;5.886;2024-03-23T09:52:40;8.30;99.90
36800;DHT22;22752;51.960;5.886;2024-03-23T09:55:08;8.30;99.90
36800;DHT22;22752;51.960;5.886;2024-03-23T09:57:34;8.50;99.90
36800;DHT22;22752;51.960;5.886;2024-03-23T10:00:00;8.60;99.90
36800;DHT22;22752;51.960;5.886;2024-03-23T10:02:26;8.80;99.90
36800;DHT22;22752;51.960;5.886;2024-03-23T10:04:51;9.10;99.90
36800;DHT22;22752;51.960;5.886;2024-03-23T10:07:21;9.30;99.90
36800;DHT22;22752;51.960;5.886;2024-03-23T10:09:50;9.60;99.90
36800;DHT22;22752;51.960;5.886;2024-03-23T10:12:19;9.80;99.90
36800;DHT22;22752;51.960;5.886;2024-03-23T10:14:45;9.80;99.90
36800;DHT22;22752;51.960;5.886;2024-03-23T10:17:22;9.90;99.90
36800;DHT22;22752;51.960;5.886;2024-03-23T10:19:52;9.90;99.90
36800;DHT22;22752;51.960;5.886;2024-03-23T10:22:20;10.00;99.90
36800;DHT22;22752;51.960;5.886;2024-03-23T10:24:46;10.10;99.90
36800;DHT22;22752;51.960;5.886;2024-03-23T10:27:16;10.10;99.90
36800;DHT22;22752;51.960;5.886;2024-03-23T10:29:43;10.20;99.90
36800;DHT22;22752;51.960;5.886;2024-03-23T10:32:13;10.30;99.90
36800;DHT22;22752;51.960;5.886;2024-03-23T10:34:39;10.30;99.90
36800;DHT22;22752;51.960;5.886;2024-03-23T10:37:08;10.00;99.90
36800;DHT22;22752;51.960;5.886;2024-03-23T10:39:35;9.40;99.90
36800;DHT22;22752;51.960;5.886;2024-03-23T10:42:05;8.90;99.90
36800;DHT22;22752;51.960;5.886;2024-03-23T10:44:31;8.60;99.90
36800;DHT22;22752;51.960;5.886;2024-03-23T10:46:58;8.60;99.90
36800;DHT22;22752;51.960;5.886;2024-03-23T10:49:29;8.80;99.90
36800;DHT22;22752;51.960;5.886;2024-03-23T10:51:56;9.00;99.90
36800;DHT22;22752;51.960;5.886;2024-03-23T10:54:24;9.20;99.90
36800;DHT22;22752;51.960;5.886;2024-03-23T10:57:03;9.30;99.90
36800;DHT22;22752;51.960;5.886;2024-03-23T10:59:31;9.50;99.90
36800;DHT22;22752;51.960;5.886;2024-03-23T11:01:59;9.70;99.90
36800;DHT22;22752;51.960;5.886;2024-03-23T11:04:32;9.80;99.90
36800;DHT22;22752;51.960;5.886;2024-03-23T11:06:58;10.00;99.90
36800;DHT22;22752;51.960;5.886;2024-03-23T11:09:43;10.10;99.90
36800;DHT22;22752;51.960;5.886;2024-03-23T11:12:30;10.10;99.90
36800;DHT22;22752;51.960;5.886;2024-03-23T11:15:04;10.10;99.90
36800;DHT22;22752;51.960;5.886;2024-03-23T11:17:30;10.10;99.90
36800;DHT22;22752;51.960;5.886;2024-03-23T11:20:00;10.10;99.90
36800;DHT22;22752;51.960;5.886;2024-03-23T11:25:19;10.10;99.90
36800;DHT22;22752;51.960;5.886;2024-03-23T11:28:08;10.30;99.90
36800;DHT22;22752;51.960;5.886;2024-03-23T11:30:34;10.50;99.90
36800;DHT22;22752;51.960;5.886;2024-03-23T11:33:02;10.70;99.90
36800;DHT22;22752;51.960;5.886;2024-03-23T11:38:07;11.00;99.90
36800;DHT22;22752;51.960;5.886;2024-03-23T11:40:38;10.90;99.90
36800;DHT22;22752;51.960;5.886;2024-03-23T11:43:05;10.70;99.90
36800;DHT22;22752;51.960;5.886;2024-03-23T11:45:39;10.20;99.90
36800;DHT22;22752;51.960;5.886;2024-03-23T11:48:10;9.90;99.90
36800;DHT22;22752;51.960;5.886;2024-03-23T11:50:43;9.50;99.90
36800;DHT22;22752;51.960;5.886;2024-03-23T11:53:21;9.30;99.90
36800;DHT22;22752;51.960;5.886;2024-03-23T11:55:57;9.50;99.90
36800;DHT22;22752;51.960;5.886;2024-03-23T11:58:25;9.60;99.90
36800;DHT22;22752;51.960;5.886;2024-03-23T12:00:58;9.60;99.90
36800;DHT22;22752;51.960;5.886;2024-03-23T12:03:25;9.70;99.90
36800;DHT22;22752;51.960;5.886;2024-03-23T12:05:53;9.70;99.90
36800;DHT22;22752;51.960;5.886;2024-03-23T12:08:24;9.70;99.90
36800;DHT22;22752;51.960;5.886;2024-03-23T12:10:52;9.70;99.90
36800;DHT22;22752;51.960;5.886;2024-03-23T12:13:19;9.80;99.90
36800;DHT22;22752;51.960;5.886;2024-03-23T12:15:46;9.80;99.90
36800;DHT22;22752;51.960;5.886;2024-03-23T12:18:12;9.70;99.90
36800;DHT22;22752;51.960;5.886;2024-03-23T12:20:38;9.60;99.90
36800;DHT22;22752;51.960;5.886;2024-03-23T12:23:06;9.50;99.90
36800;DHT22;22752;51.960;5.886;2024-03-23T12:25:32;9.50;99.90
36800;DHT22;22752;51.960;5.886;2024-03-23T12:28:00;9.50;99.90
36800;DHT22;22752;51.960;5.886;2024-03-23T12:30:32;9.60;99.90
36800;DHT22;22752;51.960;5.886;2024-03-23T12:32:58;9.70;99.90
36800;DHT22;22752;51.960;5.886;2024-03-23T12:35:23;9.80;99.90
36800;DHT22;22752;51.960;5.886;2024-03-23T12:37:52;9.80;99.90
36800;DHT22;22752;51.960;5.886;2024-03-23T12:40:17;10.00;99.90
36800;DHT22;22752;51.960;5.886;2024-03-23T12:42:43;10.20;99.90
36800;DHT22;22752;51.960;5.886;2024-03-23T12:45:09;10.40;99.90
36800;DHT22;22752;51.960;5.886;2024-03-23T12:47:34;10.50;99.90
36800;DHT22;22752;51.960;5.886;2024-03-23T12:50:00;10.70;99.90
36800;DHT22;22752;51.960;5.886;2024-03-23T12:52:26;10.90;99.90
36800;DHT22;22752;51.960;5.886;2024-03-23T12:54:55;11.10;99.90
36800;DHT22;22752;51.960;5.886;2024-03-23T12:57:23;10.60;99.90
36800;DHT22;22752;51.960;5.886;2024-03-23T12:59:49;10.20;99.90
36800;DHT22;22752;51.960;5.886;2024-03-23T13:02:17;10.00;99.90
36800;DHT22;22752;51.960;5.886;2024-03-23T13:04:44;10.00;99.90
36800;DHT22;22752;51.960;5.886;2024-03-23T13:07:10;10.00;99.90
36800;DHT22;22752;51.960;5.886;2024-03-23T13:09:36;10.10;99.90
36800;DHT22;22752;51.960;5.886;2024-03-23T13:12:01;10.10;99.90
36800;DHT22;22752;51.960;5.886;2024-03-23T13:14:27;10.20;99.90
36800;DHT22;22752;51.960;5.886;2024-03-23T13:16:53;10.40;99.90
36800;DHT22;22752;51.960;5.886;2024-03-23T13:19:19;10.50;99.90
36800;DHT22;22752;51.960;5.886;2024-03-23T13:21:45;10.70;99.90
36800;DHT22;22752;51.960;5.886;2024-03-23T13:24:11;10.90;99.90
36800;DHT22;22752;51.960;5.886;2024-03-23T13:26:36;10.90;99.90
36800;DHT22;22752;51.960;5.886;2024-03-23T13:29:02;10.90;99.90
36800;DHT22;22752;51.960;5.886;2024-03-23T13:31:27;10.60;99.90
36800;DHT22;22752;51.960;5.886;2024-03-23T13:33:53;10.00;99.90
36800;DHT22;22752;51.960;5.886;2024-03-23T13:36:19;9.50;99.90
36800;DHT22;22752;51.960;5.886;2024-03-23T13:38:44;9.40;99.90
36800;DHT22;22752;51.960;5.886;2024-03-23T13:41:10;9.30;99.90
36800;DHT22;22752;51.960;5.886;2024-03-23T13:43:37;9.30;99.90
36800;DHT22;22752;51.960;5.886;2024-03-23T13:46:03;9.30;99.90
36800;DHT22;22752;51.960;5.886;2024-03-23T13:48:29;9.50;99.90
36800;DHT22;22752;51.960;5.886;2024-03-23T13:51:04;9.80;99.90
36800;DHT22;22752;51.960;5.886;2024-03-23T13:53:31;10.10;99.90
36800;DHT22;22752;51.960;5.886;2024-03-23T13:55:58;10.50;99.90
36800;DHT22;22752;51.960;5.886;2024-03-23T13:58:24;10.70;99.90
36800;DHT22;22752;51.960;5.886;2024-03-23T14:00:51;10.70;99.90
36800;DHT22;22752;51.960;5.886;2024-03-23T14:03:17;10.60;99.90
36800;DHT22;22752;51.960;5.886;2024-03-23T14:05:44;10.40;99.90
36800;DHT22;22752;51.960;5.886;2024-03-23T14:08:10;10.50;99.90
36800;DHT22;22752;51.960;5.886;2024-03-23T14:10:40;10.40;99.90
36800;DHT22;22752;51.960;5.886;2024-03-23T14:13:05;10.20;99.90
36800;DHT22;22752;51.960;5.886;2024-03-23T14:15:31;10.00;99.90
36800;DHT22;22752;51.960;5.886;2024-03-23T14:17:58;9.70;99.90
36800;DHT22;22752;51.960;5.886;2024-03-23T14:20:24;9.70;99.90
36800;DHT22;22752;51.960;5.886;2024-03-23T14:22:50;10.00;99.90
36800;DHT22;22752;51.960;5.886;2024-03-23T14:25:15;10.30;99.90
36800;DHT22;22752;51.960;5.886;2024-03-23T14:27:43;10.10;99.90
36800;DHT22;22752;51.960;5.886;2024-03-23T14:30:09;9.80;99.90
36800;DHT22;22752;51.960;5.886;2024-03-23T14:32:35;9.60;99.90
36800;DHT22;22752;51.960;5.886;2024-03-23T14:35:02;9.30;99.90
36800;DHT22;22752;51.960;5.886;2024-03-23T14:37:29;9.00;99.90
36800;DHT22;22752;51.960;5.886;2024-03-23T14:39:57;8.80;99.90
36800;DHT22;22752;51.960;5.886;2024-03-23T14:42:23;8.90;99.90
36800;DHT22;22752;51.960;5.886;2024-03-23T14:44:50;8.90;99.90
36800;DHT22;22752;51.960;5.886;2024-03-23T14:47:15;8.70;99.90
36800;DHT22;22752;51.960;5.886;2024-03-23T14:49:43;8.70;99.90
36800;DHT22;22752;51.960;5.886;2024-03-23T14:52:13;8.90;99.90
36800;DHT22;22752;51.960;5.886;2024-03-23T14:54:38;8.90;99.90
36800;DHT22;22752;51.960;5.886;2024-03-23T14:57:04;8.70;99.90
36800;DHT22;22752;51.960;5.886;2024-03-23T14:59:30;8.50;99.90
36800;DHT22;22752;51.960;5.886;2024-03-23T15:01:56;9.00;99.90
36800;DHT22;22752;51.960;5.886;2024-03-23T15:04:22;9.10;99.90
36800;DHT22;22752;51.960;5.886;2024-03-23T15:06:47;8.90;99.90
36800;DHT22;22752;51.960;5.886;2024-03-23T15:09:15;8.70;99.90
36800;DHT22;22752;51.960;5.886;2024-03-23T15:11:40;8.60;99.90
36800;DHT22;22752;51.960;5.886;2024-03-23T15:14:06;8.70;99.90
36800;DHT22;22752;51.960;5.886;2024-03-23T15:16:33;8.90;99.90
36800;DHT22;22752;51.960;5.886;2024-03-23T15:18:58;9.30;99.90
36800;DHT22;22752;51.960;5.886;2024-03-23T15:21:24;10.30;99.90
36800;DHT22;22752;51.960;5.886;2024-03-23T15:23:50;11.40;99.90
36800;DHT22;22752;51.960;5.886;2024-03-23T15:26:15;12.30;99.90
36800;DHT22;22752;51.960;5.886;2024-03-23T15:28:48;12.70;99.90
36800;DHT22;22752;51.960;5.886;2024-03-23T15:31:22;13.20;99.90
36800;DHT22;22752;51.960;5.886;2024-03-23T15:33:48;13.50;99.90
36800;DHT22;22752;51.960;5.886;2024-03-23T15:36:14;13.50;99.90
36800;DHT22;22752;51.960;5.886;2024-03-23T15:38:40;13.10;99.90
36800;DHT22;22752;51.960;5.886;2024-03-23T15:41:05;12.30;99.90
36800;DHT22;22752;51.960;5.886;2024-03-23T15:43:31;11.80;99.90
36800;DHT22;22752;51.960;5.886;2024-03-23T15:46:01;12.30;99.90
36800;DHT22;22752;51.960;5.886;2024-03-23T15:48:30;12.90;99.90
36800;DHT22;22752;51.960;5.886;2024-03-23T15:50:58;13.60;99.90
36800;DHT22;22752;51.960;5.886;2024-03-23T15:53:25;14.00;99.90
36800;DHT22;22752;51.960;5.886;2024-03-23T15:58:20;14.60;99.90
36800;DHT22;22752;51.960;5.886;2024-03-23T16:00:53;14.70;99.90
36800;DHT22;22752;51.960;5.886;2024-03-23T16:03:19;14.70;99.90
36800;DHT22;22752;51.960;5.886;2024-03-23T16:05:53;14.80;99.20
36800;DHT22;22752;51.960;5.886;2024-03-23T16:08:19;14.60;98.40
36800;DHT22;22752;51.960;5.886;2024-03-23T16:10:44;14.40;98.60
36800;DHT22;22752;51.960;5.886;2024-03-23T16:13:10;14.30;98.50
36800;DHT22;22752;51.960;5.886;2024-03-23T16:15:36;14.30;99.00
36800;DHT22;22752;51.960;5.886;2024-03-23T16:18:01;14.30;98.20
36800;DHT22;22752;51.960;5.886;2024-03-23T16:20:27;14.10;98.80
36800;DHT22;22752;51.960;5.886;2024-03-23T16:22:53;13.90;99.10
36800;DHT22;22752;51.960;5.886;2024-03-23T16:25:18;14.00;99.40
36800;DHT22;22752;51.960;5.886;2024-03-23T16:27:44;14.00;99.80
36800;DHT22;22752;51.960;5.886;2024-03-23T16:30:11;14.30;99.80
36800;DHT22;22752;51.960;5.886;2024-03-23T16:32:36;14.30;99.60
36800;DHT22;22752;51.960;5.886;2024-03-23T16:35:04;14.10;99.40
36800;DHT22;22752;51.960;5.886;2024-03-23T16:37:30;13.90;99.50
36800;DHT22;22752;51.960;5.886;2024-03-23T16:39:56;13.50;99.70
36800;DHT22;22752;51.960;5.886;2024-03-23T16:42:21;13.50;99.90